Time;durP1;ratioP1;P1;durP2;ratioP2;P2;SDS_P1;SDS_P2;PMS_P1;PMS_P2;Temp;Humidity;BMP_temperature;BMP_pressure;BME280_temperature;BME280_humidity;BME280_pressure;Samples;Min_cycle;Max_cycle;Signal;HPM_P1;HPM_P2
2022/11/26 00:00:35;;;;;;;8.75;3.65;;;6.30;99.90;;;;;;5037671;28;20184;-80
2022/11/26 00:03:00;;;;;;;32.67;4.73;;;6.30;99.90;;;;;;5047437;28;20199;-82
2022/11/26 00:05:29;;;;;;;18.17;3.60;;;6.30;99.90;;;;;;5044505;28;20208;-81
2022/11/26 00:07:56;;;;;;;11.05;4.80;;;6.40;99.90;;;;;;5049617;28;20450;-82
2022/11/26 00:10:26;;;;;;;22.33;3.83;;;6.40;99.90;;;;;;5039054;28;20196;-80
2022/11/26 00:12:51;;;;;;;20.02;5.85;;;6.40;99.90;;;;;;5068436;22;20249;-83
2022/11/26 00:15:21;;;;;;;16.20;4.50;;;6.40;99.90;;;;;;5060192;28;20196;-83
2022/11/26 00:17:49;;;;;;;14.63;4.07;;;6.50;99.90;;;;;;5055524;28;20931;-83
2022/11/26 00:20:15;;;;;;;18.55;3.95;;;6.50;99.90;;;;;;5052392;28;20261;-83
2022/11/26 00:22:57;;;;;;;17.10;3.72;;;6.60;99.90;;;;;;5043258;28;20712;-82
2022/11/26 00:25:25;;;;;;;17.95;4.20;;;6.70;99.90;;;;;;5051245;28;20177;-83
2022/11/26 00:27:55;;;;;;;10.10;4.13;;;6.80;99.90;;;;;;5048107;28;20177;-83
2022/11/26 00:30:24;;;;;;;17.10;4.45;;;6.90;99.90;;;;;;5051846;28;20192;-83
2022/11/26 00:32:50;;;;;;;10.40;3.45;;;7.00;99.90;;;;;;5047362;28;20190;-83
2022/11/26 00:35:16;;;;;;;8.88;3.58;;;7.10;99.90;;;;;;5051875;28;20185;-82
2022/11/26 00:37:46;;;;;;;7.30;3.50;;;7.10;99.90;;;;;;5050028;28;20612;-83
2022/11/26 00:40:24;;;;;;;13.68;3.50;;;7.20;99.90;;;;;;5048752;28;20173;-84
2022/11/26 00:42:50;;;;;;;19.52;3.80;;;7.40;99.90;;;;;;5050391;28;20201;-84
2022/11/26 00:45:27;;;;;;;16.80;4.20;;;7.40;99.90;;;;;;5049649;28;20184;-83
2022/11/26 00:47:53;;;;;;;17.50;3.47;;;7.40;99.90;;;;;;5046970;28;20177;-83
2022/11/26 00:50:21;;;;;;;13.63;3.03;;;7.40;99.90;;;;;;5052670;28;20185;-84
2022/11/26 00:52:50;;;;;;;10.57;3.58;;;7.40;99.90;;;;;;5048423;28;20193;-83
2022/11/26 00:55:35;;;;;;;26.33;4.57;;;7.40;99.90;;;;;;5051815;28;20708;-83
2022/11/26 00:58:02;;;;;;;12.88;3.10;;;7.40;99.90;;;;;;5049891;28;20177;-83
2022/11/26 01:00:30;;;;;;;12.50;3.28;;;7.40;99.90;;;;;;5046684;28;20189;-83
2022/11/26 01:02:57;;;;;;;11.32;3.75;;;7.40;99.90;;;;;;5052321;28;20201;-83
2022/11/26 01:05:25;;;;;;;6.55;3.00;;;7.40;99.90;;;;;;5048070;28;20215;-83
2022/11/26 01:07:51;;;;;;;14.80;2.88;;;7.40;99.90;;;;;;5048922;28;20268;-83
2022/11/26 01:10:20;;;;;;;11.88;3.10;;;7.50;99.90;;;;;;5044512;28;20196;-84
2022/11/26 01:12:46;;;;;;;10.27;2.50;;;7.50;99.90;;;;;;5062410;28;20280;-84
2022/11/26 01:15:13;;;;;;;10.13;2.70;;;7.50;99.90;;;;;;5047285;28;20673;-84
2022/11/26 01:17:39;;;;;;;21.98;3.65;;;7.50;99.90;;;;;;5050695;28;20195;-83
2022/11/26 01:20:22;;;;;;;14.93;3.50;;;7.50;99.90;;;;;;5056563;28;20173;-83
2022/11/26 01:22:49;;;;;;;9.68;2.65;;;7.50;99.90;;;;;;5045952;28;20190;-84
2022/11/26 01:25:16;;;;;;;12.00;3.28;;;7.50;99.90;;;;;;5054028;28;20181;-84
2022/11/26 01:27:42;;;;;;;11.25;3.15;;;7.50;99.90;;;;;;5056623;28;20220;-84
2022/11/26 01:30:29;;;;;;;19.43;3.00;;;7.50;99.90;;;;;;5052889;28;20209;-84
2022/11/26 01:32:55;;;;;;;6.05;2.67;;;7.60;99.90;;;;;;5049401;28;20592;-83
2022/11/26 01:35:21;;;;;;;9.73;2.83;;;7.60;99.90;;;;;;5058796;28;20195;-83
2022/11/26 01:37:47;;;;;;;8.40;2.60;;;7.60;99.90;;;;;;5055496;28;20169;-84
2022/11/26 01:40:25;;;;;;;13.20;3.33;;;7.60;99.90;;;;;;5043070;28;20530;-84
2022/11/26 01:43:15;;;;;;;20.23;3.95;;;7.60;99.90;;;;;;5045644;28;20291;-83
2022/11/26 01:45:41;;;;;;;18.42;3.95;;;7.50;99.90;;;;;;5053785;28;20744;-83
2022/11/26 01:48:26;;;;;;;18.47;4.43;;;7.50;99.90;;;;;;5045221;28;20195;-84
2022/11/26 01:51:23;;;;;;;12.40;3.40;;;7.60;99.90;;;;;;5050635;28;20178;-84
2022/11/26 01:53:57;;;;;;;13.48;3.17;;;7.60;99.90;;;;;;5026271;28;20798;-83
2022/11/26 01:56:31;;;;;;;13.07;3.00;;;7.60;99.90;;;;;;5052101;28;20598;-83
2022/11/26 01:59:06;;;;;;;14.07;3.83;;;7.60;99.90;;;;;;5048569;28;20569;-83
2022/11/26 02:01:33;;;;;;;8.85;3.97;;;7.60;99.90;;;;;;5050661;28;20299;-83
2022/11/26 02:04:13;;;;;;;11.05;2.92;;;7.60;99.90;;;;;;5046891;28;20234;-83
2022/11/26 02:06:40;;;;;;;7.85;3.20;;;7.50;99.90;;;;;;5052158;28;20180;-84
2022/11/26 02:09:07;;;;;;;14.73;5.72;;;7.60;99.90;;;;;;5039974;28;20270;-84
2022/11/26 02:11:33;;;;;;;12.52;3.67;;;7.60;99.90;;;;;;5043524;28;20205;-83
2022/11/26 02:14:03;;;;;;;21.67;4.20;;;7.60;99.90;;;;;;5047299;28;20212;-83
2022/11/26 02:17:00;;;;;;;12.43;3.53;;;7.60;99.90;;;;;;5051057;28;20635;-82
2022/11/26 02:19:44;;;;;;;19.85;3.22;;;7.60;99.90;;;;;;5044994;28;20188;-83
2022/11/26 02:22:28;;;;;;;9.05;2.97;;;7.60;99.90;;;;;;5042451;28;20201;-83
2022/11/26 02:25:15;;;;;;;8.90;3.17;;;7.60;99.90;;;;;;5044048;28;20744;-84
2022/11/26 02:28:09;;;;;;;21.45;4.22;;;7.50;99.90;;;;;;5043417;28;20201;-83
2022/11/26 02:30:39;;;;;;;10.40;3.00;;;7.50;99.90;;;;;;5038269;28;20243;-84
2022/11/26 02:33:20;;;;;;;5.10;2.55;;;7.50;99.90;;;;;;5050727;28;21005;-84
2022/11/26 02:35:55;;;;;;;10.00;2.97;;;7.50;99.90;;;;;;5049812;28;20164;-83
2022/11/26 02:38:29;;;;;;;6.25;3.05;;;7.50;99.90;;;;;;5048746;28;20192;-85
2022/11/26 02:40:55;;;;;;;8.93;2.80;;;7.50;99.90;;;;;;5032096;28;20179;-84
2022/11/26 02:43:22;;;;;;;10.80;3.03;;;7.50;99.90;;;;;;5032082;28;20214;-85
2022/11/26 02:46:00;;;;;;;14.15;3.40;;;7.50;99.90;;;;;;5053101;28;20415;-85
2022/11/26 02:48:32;;;;;;;16.30;3.67;;;7.50;99.90;;;;;;5040567;28;20169;-85
2022/11/26 02:51:02;;;;;;;16.15;3.35;;;7.50;99.90;;;;;;5039027;28;20193;-85
2022/11/26 02:53:30;;;;;;;10.07;3.38;;;7.40;99.90;;;;;;5039373;28;20190;-85
2022/11/26 02:56:23;;;;;;;11.82;3.45;;;7.40;99.90;;;;;;5038517;28;20173;-85
2022/11/26 02:58:51;;;;;;;10.70;3.55;;;7.30;99.90;;;;;;5036626;28;20185;-85
2022/11/26 03:01:30;;;;;;;14.95;4.53;;;7.40;99.90;;;;;;5037909;28;20201;-86
2022/11/26 03:04:02;;;;;;;15.35;3.95;;;7.40;99.90;;;;;;5041910;28;20252;-85
2022/11/26 03:06:31;;;;;;;15.23;3.50;;;7.30;99.90;;;;;;5057878;28;20534;-85
2022/11/26 03:08:57;;;;;;;24.77;4.28;;;7.40;99.90;;;;;;5060339;28;20201;-84
2022/11/26 03:11:23;;;;;;;13.68;3.67;;;7.30;99.90;;;;;;5060141;28;20208;-85
2022/11/26 03:13:49;;;;;;;10.30;3.53;;;7.40;99.90;;;;;;5056367;28;20875;-85
2022/11/26 03:16:15;;;;;;;8.80;4.00;;;7.40;99.90;;;;;;5048418;28;20170;-84
2022/11/26 03:18:41;;;;;;;13.10;4.10;;;7.30;99.90;;;;;;5052126;28;20193;-85
2022/11/26 03:21:07;;;;;;;20.37;4.03;;;7.30;99.90;;;;;;5047029;28;20192;-84
2022/11/26 03:23:32;;;;;;;21.63;4.27;;;7.30;99.90;;;;;;5054718;28;20431;-84
2022/11/26 03:25:58;;;;;;;7.17;3.43;;;7.30;99.90;;;;;;5053602;28;20230;-84
2022/11/26 03:28:23;;;;;;;16.60;4.90;;;7.10;99.90;;;;;;5048964;28;20173;-84
2022/11/26 03:30:49;;;;;;;18.43;4.90;;;7.10;99.90;;;;;;5057079;28;20195;-84
2022/11/26 03:33:15;;;;;;;14.13;4.47;;;7.10;99.90;;;;;;5056263;28;20208;-84
2022/11/26 03:35:41;;;;;;;22.10;6.83;;;7.10;99.90;;;;;;5044228;28;20181;-84
2022/11/26 03:38:06;;;;;;;15.93;5.87;;;7.00;99.90;;;;;;5056001;28;20174;-83
2022/11/26 03:40:32;;;;;;;13.97;4.13;;;7.00;99.90;;;;;;5043136;28;20170;-84
2022/11/26 03:42:57;;;;;;;23.10;4.40;;;6.90;99.90;;;;;;5046244;28;20224;-84
2022/11/26 03:45:23;;;;;;;11.33;4.17;;;6.90;99.90;;;;;;5049233;28;20166;-84
2022/11/26 03:47:48;;;;;;;10.93;3.87;;;6.90;99.90;;;;;;5056555;28;20188;-83
2022/11/26 03:50:14;;;;;;;21.23;5.70;;;6.90;99.90;;;;;;5059777;28;20188;-83
2022/11/26 03:52:40;;;;;;;15.50;4.17;;;6.80;99.90;;;;;;5051779;28;20197;-83
2022/11/26 03:55:06;;;;;;;17.70;4.47;;;6.80;99.90;;;;;;5053920;28;20264;-83
2022/11/26 03:57:31;;;;;;;17.98;4.53;;;6.80;99.90;;;;;;5058863;28;20239;-83
2022/11/26 03:59:57;;;;;;;10.50;4.13;;;6.80;99.90;;;;;;5045820;28;20808;-83
2022/11/26 04:02:22;;;;;;;11.47;4.13;;;6.80;99.90;;;;;;5041306;28;20190;-83
2022/11/26 04:04:48;;;;;;;15.20;4.23;;;6.70;99.90;;;;;;5058489;28;20169;-84
2022/11/26 04:07:13;;;;;;;11.33;3.60;;;6.70;99.90;;;;;;5047602;28;20252;-83
2022/11/26 04:09:39;;;;;;;29.67;5.20;;;6.60;99.90;;;;;;5046954;28;20623;-83
2022/11/26 04:12:04;;;;;;;7.33;4.10;;;6.60;99.90;;;;;;5055212;28;20602;-84
2022/11/26 04:14:30;;;;;;;12.30;4.60;;;6.60;99.90;;;;;;5053353;28;20227;-83
2022/11/26 04:16:55;;;;;;;13.07;4.50;;;6.50;99.90;;;;;;5059123;28;20209;-83
2022/11/26 04:19:21;;;;;;;15.20;4.53;;;6.50;99.90;;;;;;5049363;28;20177;-83
2022/11/26 04:21:46;;;;;;;16.77;5.03;;;6.50;99.90;;;;;;5048804;28;20228;-83
2022/11/26 04:24:12;;;;;;;19.07;6.10;;;6.40;99.90;;;;;;5055849;28;20200;-83
2022/11/26 04:26:37;;;;;;;9.57;4.67;;;6.30;99.90;;;;;;5054214;28;20173;-83
2022/11/26 04:29:03;;;;;;;19.03;6.00;;;6.30;99.90;;;;;;5049722;28;20192;-83
2022/11/26 04:31:29;;;;;;;19.40;6.50;;;6.30;99.90;;;;;;5053363;28;20221;-83
2022/11/26 04:33:54;;;;;;;19.50;5.77;;;6.20;99.90;;;;;;5049544;28;20260;-84
2022/11/26 04:36:20;;;;;;;23.97;5.90;;;6.20;99.90;;;;;;5055489;28;20260;-83
2022/11/26 04:38:45;;;;;;;16.33;6.40;;;6.10;99.90;;;;;;5058481;28;20201;-82
2022/11/26 04:41:11;;;;;;;10.10;5.80;;;6.10;99.90;;;;;;5049883;28;20176;-83
2022/11/26 04:43:36;;;;;;;22.70;5.90;;;6.10;99.90;;;;;;5048758;28;20181;-83
2022/11/26 04:46:02;;;;;;;12.00;7.00;;;6.00;99.90;;;;;;5053261;28;21039;-82
2022/11/26 04:48:27;;;;;;;19.10;6.17;;;6.00;99.90;;;;;;5051764;28;20248;-82
2022/11/26 04:50:53;;;;;;;23.50;11.80;;;6.00;99.90;;;;;;5049742;28;20177;-83
2022/11/26 04:53:20;;;;;;;20.63;10.87;;;6.40;99.90;;;;;;5055567;28;20244;-83
2022/11/26 04:55:48;;;;;;;16.55;7.55;;;5.80;99.90;;;;;;5051420;28;20211;-83
2022/11/26 04:58:14;;;;;;;15.40;6.55;;;5.70;99.90;;;;;;5051223;28;20799;-83
2022/11/26 05:00:40;;;;;;;15.73;6.63;;;5.70;99.90;;;;;;5057249;28;20169;-83
2022/11/26 05:03:05;;;;;;;25.20;9.10;;;5.70;99.90;;;;;;5049470;28;20216;-83
2022/11/26 05:05:31;;;;;;;24.13;8.70;;;5.70;99.90;;;;;;5047739;28;20204;-83
2022/11/26 05:07:56;;;;;;;15.53;5.60;;;5.60;99.90;;;;;;5051760;28;20167;-82
2022/11/26 05:10:22;;;;;;;22.37;6.47;;;5.60;99.90;;;;;;5051456;28;20174;-83
2022/11/26 05:12:48;;;;;;;12.43;6.53;;;5.60;99.90;;;;;;5048645;28;20220;-83
2022/11/26 05:15:13;;;;;;;17.93;7.30;;;5.70;99.90;;;;;;5052016;28;20178;-84
2022/11/26 05:17:39;;;;;;;20.07;6.27;;;5.70;99.90;;;;;;5055797;28;20234;-84
2022/11/26 05:20:05;;;;;;;13.23;5.63;;;5.60;99.90;;;;;;5048549;28;20201;-84
2022/11/26 05:22:31;;;;;;;12.15;5.15;;;5.60;99.90;;;;;;5047130;28;20213;-84
2022/11/26 05:24:56;;;;;;;14.37;5.57;;;5.50;99.90;;;;;;5048537;28;20197;-83
2022/11/26 05:27:22;;;;;;;18.20;4.63;;;5.30;99.90;;;;;;5045445;28;20181;-83
2022/11/26 05:29:47;;;;;;;16.77;5.60;;;5.10;99.90;;;;;;5045962;28;20190;-85
2022/11/26 05:32:13;;;;;;;22.13;6.33;;;5.10;99.90;;;;;;5041987;28;20206;-84
2022/11/26 05:34:38;;;;;;;13.13;5.90;;;5.00;99.90;;;;;;5039767;28;20224;-84
2022/11/26 05:37:04;;;;;;;18.87;7.30;;;5.00;99.90;;;;;;5045846;28;20177;-84
2022/11/26 05:39:29;;;;;;;28.10;7.90;;;5.00;99.90;;;;;;5045298;28;20193;-85
2022/11/26 05:41:55;;;;;;;15.20;6.20;;;5.00;99.90;;;;;;5040906;28;20224;-84
2022/11/26 05:44:21;;;;;;;14.13;7.33;;;4.90;99.90;;;;;;5035153;28;20620;-84
2022/11/26 05:46:47;;;;;;;20.17;7.50;;;;;;;;;;5037349;28;20181;-86
2022/11/26 05:49:12;;;;;;;21.53;7.40;;;4.90;99.90;;;;;;5042966;28;20519;-84
2022/11/26 05:51:38;;;;;;;24.17;6.00;;;4.80;99.90;;;;;;5042347;28;20488;-84
2022/11/26 05:54:03;;;;;;;15.87;6.87;;;4.80;99.90;;;;;;5045143;28;20205;-83
2022/11/26 05:56:29;;;;;;;24.93;7.10;;;4.80;99.90;;;;;;5042565;28;20173;-84
2022/11/26 05:58:54;;;;;;;16.37;6.60;;;4.80;99.90;;;;;;5046102;28;20547;-83
2022/11/26 06:01:20;;;;;;;24.03;7.33;;;4.70;99.90;;;;;;5050474;28;20178;-83
2022/11/26 06:03:45;;;;;;;20.10;6.43;;;4.70;99.90;;;;;;5045422;28;20174;-83
2022/11/26 06:06:11;;;;;;;20.00;6.33;;;4.70;99.90;;;;;;5041841;28;20181;-83
2022/11/26 06:08:36;;;;;;;18.17;7.40;;;4.70;99.90;;;;;;5046025;28;20184;-83
2022/11/26 06:11:02;;;;;;;20.43;6.83;;;4.60;99.90;;;;;;5039883;28;20197;-84
2022/11/26 06:13:27;;;;;;;20.60;7.60;;;4.70;99.90;;;;;;5042902;28;21529;-83
2022/11/26 06:15:53;;;;;;;25.33;6.83;;;;;;;;;;5075401;22;20668;-86
2022/11/26 06:18:19;;;;;;;26.67;8.00;;;;;;;;;;5056915;28;20188;-85
2022/11/26 06:20:45;;;;;;;20.37;7.00;;;;;;;;;;5044594;28;20474;-87
2022/11/26 06:23:11;;;;;;;21.07;6.60;;;;;;;;;;5050392;28;20536;-85
2022/11/26 06:25:40;;;;;;;17.43;6.40;;;4.70;99.90;;;;;;5050994;28;20439;-87
2022/11/26 06:28:05;;;;;;;13.82;6.95;;;4.70;99.90;;;;;;5045048;28;20498;-86
2022/11/26 06:30:31;;;;;;;18.23;7.60;;;;;;;;;;5049407;28;20224;-85
2022/11/26 06:32:57;;;;;;;26.33;9.13;;;;;;;;;;5038030;28;20200;-85
2022/11/26 06:35:22;;;;;;;18.20;8.10;;;4.60;99.90;;;;;;5045218;28;20438;-85
2022/11/26 06:37:49;;;;;;;17.50;7.83;;;;;;;;;;5051991;28;20432;-87
2022/11/26 06:40:17;;;;;;;19.45;6.60;;;4.40;99.90;;;;;;5044414;28;20264;-87
2022/11/26 06:42:50;;;;;;;22.58;7.00;;;4.50;99.90;;;;;;5044598;28;20185;-88
2022/11/26 06:45:16;;;;;;;14.95;6.57;;;4.40;99.90;;;;;;5036703;28;20325;-84
2022/11/26 06:47:42;;;;;;;14.73;6.18;;;;;;;;;;5041195;28;20244;-87
2022/11/26 06:50:08;;;;;;;14.23;6.33;;;4.40;99.90;;;;;;5045288;28;20623;-87
2022/11/26 06:52:34;;;;;;;14.57;6.10;;;4.20;99.90;;;;;;5043320;28;20458;-86
2022/11/26 06:54:59;;;;;;;18.83;6.07;;;;;;;;;;5044631;28;20219;-87
2022/11/26 06:57:25;;;;;;;32.40;5.70;;;4.00;99.90;;;;;;5037689;28;20184;-87
2022/11/26 06:59:51;;;;;;;14.33;5.40;;;;;;;;;;5044057;28;20435;-88
2022/11/26 07:02:17;;;;;;;16.27;6.68;;;4.10;99.90;;;;;;5049274;28;20177;-87
2022/11/26 07:04:42;;;;;;;37.03;6.50;;;4.10;99.90;;;;;;5044478;28;20219;-85
2022/11/26 07:07:08;;;;;;;27.57;6.60;;;4.20;99.90;;;;;;5054823;28;20755;-85
2022/11/26 07:09:34;;;;;;;12.33;6.97;;;;;;;;;;5063706;28;20196;-87
2022/11/26 07:12:00;;;;;;;14.07;6.80;;;;;;;;;;5049771;28;20231;-86
2022/11/26 07:14:26;;;;;;;25.70;8.43;;;;;;;;;;5048094;28;20221;-85
2022/11/26 07:16:52;;;;;;;24.70;11.27;;;;;;;;;;5052682;28;20446;-88
2022/11/26 07:19:17;;;;;;;25.83;9.02;;;4.40;99.90;;;;;;5034873;28;20469;-87
2022/11/26 07:21:43;;;;;;;58.07;19.87;;;;;;;;;;5047518;28;20519;-88
2022/11/26 07:24:09;;;;;;;41.33;15.50;;;;;;;;;;5062991;28;20209;-87
2022/11/26 07:26:35;;;;;;;32.00;13.95;;;4.60;99.90;;;;;;5044489;28;20573;-87
2022/11/26 07:29:01;;;;;;;54.90;24.33;;;;;;;;;;5045292;28;20272;-89
2022/11/26 07:31:26;;;;;;;41.58;18.08;;;4.70;99.90;;;;;;5046891;28;20286;-90
2022/11/26 07:33:52;;;;;;;36.40;18.83;;;;;;;;;;5053687;28;20208;-87
2022/11/26 07:36:24;;;;;;;21.63;9.20;;;4.80;99.90;;;;;;5044797;28;20634;-89
2022/11/26 07:38:53;;;;;;;23.67;12.93;;;5.10;99.90;;;;;;5043460;28;20530;-88
2022/11/26 07:41:20;;;;;;;30.92;13.75;;;;;;;;;;5044299;28;20573;-88
2022/11/26 07:43:45;;;;;;;27.17;12.05;;;5.50;99.90;;;;;;5042437;28;20205;-89
2022/11/26 07:46:14;;;;;;;16.30;7.53;;;5.60;99.90;;;;;;5038553;28;20282;-88
2022/11/26 07:48:40;;;;;;;18.35;6.60;;;;;;;;;;5062638;28;20177;-88
2022/11/26 07:51:07;;;;;;;26.88;10.55;;;6.30;99.90;;;;;;5045218;28;20193;-88
2022/11/26 07:53:34;;;;;;;35.30;11.35;;;6.80;99.90;;;;;;5056034;28;20208;-89
2022/11/26 07:56:04;;;;;;;23.40;10.02;;;7.90;99.90;;;;;;5060602;28;20205;-89
2022/11/26 07:58:30;;;;;;;16.98;7.53;;;;;;;;;;5043925;28;20216;-87
2022/11/26 08:00:56;;;;;;;25.05;8.23;;;;;;;;;;5047602;28;20189;-86
2022/11/26 08:03:22;;;;;;;15.90;5.77;;;;;;;;;;5046777;28;20229;-86
2022/11/26 08:05:48;;;;;;;15.23;6.33;;;;;;;;;;5056697;28;20433;-90
2022/11/26 08:08:14;;;;;;;15.10;5.27;;;;;;;;;;5051302;28;20427;-86
2022/11/26 08:10:40;;;;;;;9.37;5.40;;;;;;;;;;5053027;28;20496;-89
2022/11/26 08:13:06;;;;;;;15.60;4.23;;;;;;;;;;5042799;28;20452;-85
2022/11/26 08:15:33;;;;;;;9.90;4.40;;;;;;;;;;5045967;28;20507;-89
2022/11/26 08:17:59;;;;;;;8.35;4.40;;;;;;;;;;5059685;28;20424;-88
2022/11/26 08:20:25;;;;;;;10.30;4.87;;;;;;;;;;5056514;28;20614;-89
2022/11/26 08:22:51;;;;;;;14.40;4.70;;;;;;;;;;5058308;28;20423;-88
2022/11/26 08:25:17;;;;;;;8.97;4.83;;;;;;;;;;5031722;28;20243;-88
2022/11/26 08:27:43;;;;;;;10.23;4.60;;;;;;;;;;5057754;28;20847;-88
2022/11/26 08:30:10;;;;;;;9.63;5.37;;;13.70;99.90;;;;;;5058882;28;20455;-87
2022/11/26 08:32:36;;;;;;;10.43;6.17;;;;;;;;;;5048622;28;20439;-88
2022/11/26 08:35:03;;;;;;;10.00;5.03;;;14.10;99.90;;;;;;5038938;28;20467;-88
2022/11/26 08:37:29;;;;;;;10.83;5.07;;;;;;;;;;5042292;28;20427;-88
2022/11/26 08:39:55;;;;;;;12.10;5.50;;;;;;;;;;5037130;28;20428;-88
2022/11/26 08:42:21;;;;;;;16.93;7.53;;;;;;;;;;5039905;28;20670;-86
2022/11/26 08:44:47;;;;;;;15.33;7.50;;;;;;;;;;5042454;28;20502;-86
2022/11/26 08:47:13;;;;;;;35.87;8.60;;;;;;;;;;5024205;28;20439;-88
2022/11/26 08:49:39;;;;;;;23.33;15.90;;;;;;;;;;5029628;28;20435;-86
2022/11/26 08:52:05;;;;;;;32.73;16.10;;;;;;;;;;5024938;28;20452;-89
2022/11/26 08:54:31;;;;;;;28.03;15.57;;;;;;;;;;5033520;28;20517;-88
2022/11/26 08:56:57;;;;;;;23.43;14.53;;;;;;;;;;5031608;28;20455;-89
2022/11/26 08:59:24;;;;;;;36.13;14.10;;;;;;;;;;5040446;28;20843;-85
2022/11/26 09:01:50;;;;;;;25.93;14.47;;;;;;;;;;5034812;28;20533;-87
2022/11/26 09:04:16;;;;;;;13.93;8.57;;;;;;;;;;5033363;28;20561;-86
2022/11/26 09:06:42;;;;;;;15.90;7.30;;;;;;;;;;5027864;28;20439;-88
2022/11/26 09:09:11;;;;;;;12.80;7.70;;;;;;;;;;5026543;28;20466;-90
2022/11/26 09:12:01;;;;;;;14.80;7.20;;;12.80;99.90;;;;;;5019215;28;20447;-89
2022/11/26 09:14:29;;;;;;;14.83;7.13;;;12.10;99.90;;;;;;5040671;28;20481;-88
2022/11/26 09:16:56;;;;;;;11.43;6.07;;;11.50;99.90;;;;;;5037389;28;20439;-89
2022/11/26 09:19:22;;;;;;;9.50;6.03;;;11.50;99.90;;;;;;5037751;28;20431;-88
2022/11/26 09:21:49;;;;;;;11.73;6.20;;;10.70;99.90;;;;;;5038367;28;20560;-88
2022/11/26 09:24:16;;;;;;;16.65;5.72;;;9.80;99.90;;;;;;5029554;28;20204;-89
2022/11/26 09:26:42;;;;;;;18.40;6.28;;;;;;;;;;5034508;28;20184;-88
2022/11/26 09:29:11;;;;;;;20.33;6.32;;;9.30;99.90;;;;;;5047570;28;20284;-88
2022/11/26 09:31:36;;;;;;;12.60;6.32;;;9.10;99.90;;;;;;5033253;28;20252;-89
2022/11/26 09:34:03;;;;;;;23.07;7.90;;;9.20;99.90;;;;;;5030843;28;20210;-88
2022/11/26 09:36:29;;;;;;;18.45;9.20;;;9.30;99.90;;;;;;5035168;28;20208;-87
2022/11/26 09:38:56;;;;;;;28.30;10.13;;;9.40;99.90;;;;;;5041402;28;20583;-89
2022/11/26 09:42:07;;;;;;;25.20;10.85;;;9.60;99.90;;;;;;5040425;28;20907;-88
2022/11/26 09:44:43;;;;;;;22.98;8.63;;;9.70;99.90;;;;;;5036848;28;20212;-90
2022/11/26 09:47:26;;;;;;;22.88;9.27;;;9.50;99.90;;;;;;5034815;28;20201;-90
2022/11/26 09:50:13;;;;;;;20.98;8.75;;;9.20;99.90;;;;;;5039504;28;20185;-87
2022/11/26 09:53:03;;;;;;;17.20;8.82;;;9.90;99.90;;;;;;5046069;28;20882;-86
2022/11/26 09:55:35;;;;;;;14.57;9.45;;;10.10;99.90;;;;;;5058723;28;20188;-89
2022/11/26 09:58:15;;;;;;;22.70;14.93;;;10.40;99.90;;;;;;5053489;28;20198;-88
2022/11/26 10:00:44;;;;;;;33.95;11.35;;;10.70;99.90;;;;;;5047450;28;20203;-88
2022/11/26 10:03:22;;;;;;;16.20;8.80;;;10.70;99.90;;;;;;5050132;28;20282;-88
2022/11/26 10:06:01;;;;;;;23.17;9.10;;;11.00;99.90;;;;;;5039878;28;20266;-89
2022/11/26 10:08:45;;;;;;;17.05;7.10;;;11.00;99.90;;;;;;5058309;28;20196;-87
2022/11/26 10:11:26;;;;;;;12.80;7.00;;;10.90;99.90;;;;;;5040292;28;20192;-87
2022/11/26 10:14:08;;;;;;;13.85;8.23;;;10.50;99.90;;;;;;5043520;28;20200;-89
2022/11/26 10:17:09;;;;;;;15.98;6.38;;;10.10;99.90;;;;;;5044135;28;20176;-87
2022/11/26 10:19:41;;;;;;;13.55;6.50;;;10.10;99.90;;;;;;5042114;28;20238;-88
2022/11/26 10:22:24;;;;;;;12.27;6.70;;;10.00;99.90;;;;;;5045610;28;20177;-88
2022/11/26 10:24:50;;;;;;;17.33;7.00;;;9.80;99.90;;;;;;5047476;28;20208;-89
2022/11/26 10:27:19;;;;;;;15.50;6.43;;;9.60;99.90;;;;;;5043140;28;20216;-89
2022/11/26 10:30:27;;;;;;;20.65;8.05;;;9.60;99.90;;;;;;5035316;28;20177;-88
2022/11/26 10:32:57;;;;;;;21.58;8.55;;;9.40;99.90;;;;;;5046066;28;20395;-88
2022/11/26 10:35:26;;;;;;;37.08;9.30;;;9.30;99.90;;;;;;5059008;28;20220;-86
2022/11/26 10:37:54;;;;;;;20.83;8.57;;;9.50;99.90;;;;;;5056764;28;20154;-89
2022/11/26 10:40:23;;;;;;;17.85;8.27;;;11.00;99.90;;;;;;5063241;28;20800;-89
2022/11/26 10:43:07;;;;;;;27.75;10.60;;;9.90;99.90;;;;;;5035465;28;20174;-88
2022/11/26 10:45:38;;;;;;;19.60;8.27;;;10.00;99.90;;;;;;5039501;28;20189;-89
2022/11/26 10:48:29;;;;;;;21.27;8.57;;;10.00;99.90;;;;;;5059997;28;20165;-87
2022/11/26 10:51:17;;;;;;;24.08;8.38;;;9.80;99.90;;;;;;5036579;28;20220;-87
2022/11/26 10:53:56;;;;;;;14.75;7.60;;;9.90;99.90;;;;;;5046507;28;20231;-87
2022/11/26 10:56:30;;;;;;;17.63;8.00;;;10.00;99.90;;;;;;5057357;28;20192;-88
2022/11/26 10:59:01;;;;;;;16.30;7.07;;;9.50;99.90;;;;;;5052636;28;20238;-88
2022/11/26 11:01:38;;;;;;;16.55;7.95;;;9.60;99.90;;;;;;5040506;28;20183;-88
2022/11/26 11:04:39;;;;;;;18.02;7.90;;;9.40;99.90;;;;;;5035157;28;20227;-87
2022/11/26 11:07:25;;;;;;;17.45;7.07;;;9.30;99.90;;;;;;5044464;28;20212;-86
2022/11/26 11:10:01;;;;;;;17.67;8.02;;;9.00;99.90;;;;;;5045182;28;20192;-85
2022/11/26 11:12:27;;;;;;;22.48;6.90;;;9.00;99.90;;;;;;5063578;28;20926;-88
2022/11/26 11:14:53;;;;;;;15.37;7.77;;;;;;;;;;5059867;28;20228;-86
2022/11/26 11:17:29;;;;;;;20.30;6.87;;;9.10;99.90;;;;;;5057707;28;20205;-88
2022/11/26 11:19:58;;;;;;;19.23;6.40;;;9.30;99.90;;;;;;5071062;28;20435;-88
2022/11/26 11:22:25;;;;;;;18.95;7.68;;;9.20;99.90;;;;;;5066389;28;20257;-84
2022/11/26 11:24:50;;;;;;;13.88;6.60;;;9.40;99.90;;;;;;5052823;28;20482;-86
2022/11/26 11:27:38;;;;;;;16.37;6.33;;;9.60;99.90;;;;;;5054372;28;20273;-89
2022/11/26 11:30:04;;;;;;;14.57;6.00;;;9.60;99.90;;;;;;5041549;28;20611;-88
2022/11/26 11:32:38;;;;;;;19.20;7.03;;;9.50;99.90;;;;;;5046510;28;20252;-88
2022/11/26 11:35:20;;;;;;;13.68;7.25;;;9.40;99.90;;;;;;5062805;28;20212;-88
2022/11/26 11:37:49;;;;;;;12.55;5.80;;;9.20;99.90;;;;;;5060139;28;20186;-87
2022/11/26 11:40:19;;;;;;;14.32;6.30;;;8.90;99.90;;;;;;5051520;28;20196;-87
2022/11/26 11:42:50;;;;;;;15.18;7.00;;;8.80;99.90;;;;;;5051052;28;20185;-87
2022/11/26 11:45:46;;;;;;;19.83;6.15;;;8.80;99.90;;;;;;5048176;28;20252;-87
2022/11/26 11:48:18;;;;;;;19.42;7.50;;;8.80;99.90;;;;;;5060347;28;20205;-87
2022/11/26 11:51:02;;;;;;;10.63;5.78;;;8.80;99.90;;;;;;5063347;28;20294;-89
2022/11/26 11:53:35;;;;;;;14.77;6.38;;;8.40;99.90;;;;;;5042452;28;20262;-87
2022/11/26 11:56:10;;;;;;;12.85;5.20;;;8.40;99.90;;;;;;5054582;28;20173;-89
2022/11/26 11:58:50;;;;;;;14.88;5.50;;;8.50;99.90;;;;;;5057804;28;20310;-88
2022/11/26 12:01:41;;;;;;;16.08;6.55;;;8.70;99.90;;;;;;5060089;28;20533;-88
2022/11/26 12:04:37;;;;;;;20.73;7.20;;;9.00;99.90;;;;;;5041772;28;20779;-88
2022/11/26 12:07:29;;;;;;;22.08;6.15;;;9.20;99.90;;;;;;5049460;28;20185;-89
2022/11/26 12:10:09;;;;;;;15.90;6.55;;;9.40;99.90;;;;;;5047005;28;20208;-88
2022/11/26 12:12:43;;;;;;;14.88;5.88;;;9.70;99.90;;;;;;5041330;28;20262;-87
2022/11/26 12:15:23;;;;;;;19.55;6.80;;;9.70;99.90;;;;;;5033989;28;20280;-89
2022/11/26 12:18:20;;;;;;;12.48;5.70;;;9.60;99.90;;;;;;5061308;28;22433;-89
2022/11/26 12:21:04;;;;;;;8.98;4.65;;;9.70;99.90;;;;;;5044345;28;20376;-88
2022/11/26 12:23:52;;;;;;;13.70;5.78;;;9.50;99.90;;;;;;5066261;28;20200;-87
2022/11/26 12:26:23;;;;;;;14.00;5.03;;;9.00;99.90;;;;;;5059977;28;20189;-89
2022/11/26 12:29:23;;;;;;;10.90;4.95;;;9.00;99.90;;;;;;5063275;28;20272;-88
2022/11/26 12:31:59;;;;;;;16.05;5.50;;;9.00;99.90;;;;;;5039675;28;20254;-89
2022/11/26 12:34:33;;;;;;;18.80;5.57;;;9.40;99.90;;;;;;5063709;28;20644;-88
2022/11/26 12:36:59;;;;;;;11.90;5.28;;;;;;;;;;5052388;28;20174;-87
2022/11/26 12:42:01;;;;;;;15.23;4.90;;;9.70;99.90;;;;;;5054919;28;20564;-82
2022/11/26 12:44:38;;;;;;;10.93;4.95;;;9.80;99.90;;;;;;5073759;28;20269;-79
2022/11/26 12:47:08;;;;;;;11.75;5.05;;;9.90;99.90;;;;;;5052812;28;20191;-82
2022/11/26 12:49:51;;;;;;;16.00;5.38;;;9.60;99.90;;;;;;5058672;28;20568;-82
2022/11/26 12:52:44;;;;;;;13.27;6.32;;;9.60;99.90;;;;;;5051113;28;20180;-84
2022/11/26 12:55:47;;;;;;;10.70;4.50;;;9.70;99.90;;;;;;5063747;28;20212;-86
2022/11/26 12:58:21;;;;;;;14.13;4.28;;;9.40;99.90;;;;;;5048162;28;20250;-82
2022/11/26 13:00:51;;;;;;;8.93;4.15;;;9.30;99.90;;;;;;5059683;28;20242;-82
2022/11/26 13:03:29;;;;;;;12.23;4.57;;;9.30;99.90;;;;;;5058441;28;20180;-81
2022/11/26 13:05:59;;;;;;;10.88;5.35;;;9.10;99.90;;;;;;5052347;28;20177;-86
2022/11/26 13:09:04;;;;;;;13.15;5.00;;;9.00;99.90;;;;;;5049535;28;20271;-80
2022/11/26 13:11:44;;;;;;;16.30;5.78;;;9.00;99.90;;;;;;5038492;28;20216;-81
2022/11/26 13:14:18;;;;;;;13.65;4.43;;;9.10;99.90;;;;;;5058456;28;20701;-81
2022/11/26 13:16:53;;;;;;;18.13;4.95;;;9.20;99.90;;;;;;5058982;28;20167;-81
2022/11/26 13:19:31;;;;;;;16.17;5.28;;;9.40;99.90;;;;;;5057807;28;20211;-82
2022/11/26 13:22:27;;;;;;;8.32;4.03;;;9.20;99.90;;;;;;5061053;28;20683;-82